Time;durP1;ratioP1;P1;durP2;ratioP2;P2;SDS_P1;SDS_P2;PMS_P1;PMS_P2;Temp;Humidity;BMP_temperature;BMP_pressure;BME280_temperature;BME280_humidity;BME280_pressure;Samples;Min_cycle;Max_cycle;Signal;HPM_P1;HPM_P2
2022/12/17 13:08:24;;;;;;;;;;;;;;;;;;5112245;28;773;-68
2022/12/17 13:10:51;;;;;;;;;;;;;;;;;;5110024;28;1329;-66
2022/12/17 13:13:32;;;;;;;;;;;;;;;;;;5110423;28;1209;-68
2022/12/17 13:16:01;;;;;;;;;;;;;;;;;;5110471;28;1527;-67
2022/12/17 13:18:26;;;;;;;;;;;;;;;;;;5111070;28;1906;-67
2022/12/17 13:21:05;;;;;;;;;;;;;;;;;;5109798;28;1190;-68
2022/12/17 13:23:34;;;;;;;;;;;;;;;;;;5110218;28;896;-68
2022/12/17 13:26:19;;;;;;;;;;;;;;;;;;5109407;28;1221;-68
2022/12/17 13:28:56;;;;;;;;;;;;;;;;;;5110552;28;820;-68
2022/12/17 13:31:25;;;;;;;;;;;;;;;;;;5110588;28;796;-68
2022/12/17 13:33:56;;;;;;;;;;;;;;;;;;5109638;28;1339;-68
2022/12/17 13:36:28;;;;;;;;;;;;;;;;;;5109849;28;852;-68
2022/12/17 13:38:58;;;;;;;;;;;;;;;;;;5112191;28;1901;-67
2022/12/17 13:41:29;;;;;;;;;;;;;;;;;;5114728;28;939;-67
2022/12/17 13:43:56;;;;;;;;;;;;;;;;;;5114086;28;1193;-67
2022/12/17 13:46:21;;;;;;;;;;;;;;;;;;5113865;28;909;-67
2022/12/17 13:48:54;;;;;;;;;;;;;;;;;;5114253;28;790;-67
2022/12/17 13:51:20;;;;;;;;;;;;;;;;;;5113976;28;837;-67
2022/12/17 13:53:53;;;;;;;;;;;;;;;;;;5114315;28;856;-67
2022/12/17 13:56:27;;;;;;;;;;;;;;;;;;5112893;28;1337;-66
2022/12/17 13:58:53;;;;;;;;;;;;;;;;;;5113530;28;2040;-67
2022/12/17 14:01:19;;;;;;;;;;;;;;;;;;5113862;28;907;-66
2022/12/17 14:03:52;;;;;;;;;;;;;;;;;;5114904;28;925;-67
2022/12/17 14:06:18;;;;;;;;;;;;;;;;;;5114064;28;966;-67
2022/12/17 14:08:45;;;;;;;;;;;;;;;;;;5112822;28;1218;-67
2022/12/17 14:13:55;;;;;;;;;;;;;;;;;;5114295;28;682;-66
2022/12/17 14:16:20;;;;;;;;;;;;;;;;;;5112269;28;1301;-66
2022/12/17 14:18:50;;;;;;;;;;;;;;;;;;5112774;28;1893;-67
2022/12/17 14:21:15;;;;;;;;;;;;;;;;;;5112568;28;1099;-67
2022/12/17 14:23:41;;;;;;;;;;;;;;;;;;5113170;28;1217;-67
2022/12/17 14:26:10;;;;;;;;;;;;;;;;;;5114423;28;999;-67
2022/12/17 14:28:43;;;;;;;;;;;;;;;;;;5114469;28;876;-67
2022/12/17 14:31:19;;;;;;;;;;;;;;;;;;5115383;28;815;-68
2022/12/17 14:33:44;;;;;;;;;;;;;;;;;;5113216;28;1135;-68
2022/12/17 14:36:20;;;;;;;;;;;;;;;;;;5114587;28;808;-68
2022/12/17 14:39:10;;;;;;;;;;;;;;;;;;5114729;28;1894;-68
2022/12/17 14:44:22;;;;;;;;;;;;;;;;;;5114410;28;893;-68
2022/12/17 14:46:54;;;;;;;;;;;;;;;;;;5113730;28;1020;-67
2022/12/17 14:49:20;;;;;;;;;;;;;;;;;;5111164;28;1333;-67
2022/12/17 14:51:46;;;;;;;;;;;;;;;;;;5111930;28;1237;-68
2022/12/17 14:54:18;;;;;;;;;;;;;;;;;;5113476;28;993;-68
2022/12/17 14:56:44;;;;;;;;;;;;;;;;;;5111649;28;1380;-68
2022/12/17 14:59:28;;;;;;;;;;;;;;;;;;5112044;28;1971;-68
2022/12/17 15:01:54;;;;;;;;;;;;;;;;;;5113464;28;879;-68
2022/12/17 15:04:20;;;;;;;;;;;;;;;;;;5111499;28;1408;-68
2022/12/17 15:06:45;;;;;;;;;;;;;;;;;;5111638;28;1312;-67
2022/12/17 15:09:11;;;;;;;;;;;;;;;;;;5094833;28;1218;-67
2022/12/17 15:11:37;;;;;;;;;;;;;;;;;;5111564;28;1151;-70
2022/12/17 15:14:02;;;;;;;;;;;;;;;;;;5094466;28;1238;-69
2022/12/17 15:16:27;;;;;;;;;;;;;;;;;;5112931;28;809;-70
2022/12/17 15:18:53;;;;;;;;;;;;;;;;;;5111468;28;1901;-67
2022/12/17 15:21:18;;;;;;;;;;;;;;;;;;5112130;28;875;-67
2022/12/17 15:23:44;;;;;;;;;;;;;;;;;;5111638;28;1098;-68
2022/12/17 15:26:10;;;;;;;;;;;;;;;;;;5111599;28;1491;-67
2022/12/17 15:28:35;;;;;;;;;;;;;;;;;;5111455;28;1288;-66
2022/12/17 15:31:00;;;;;;;;;;;;;;;;;;5111432;28;1227;-67
2022/12/17 15:33:25;;;;;;;;;;;;;;;;;;5093923;28;1332;-66
2022/12/17 15:35:51;;;;;;;;;;;;;;;;;;5111737;28;816;-65
2022/12/17 15:38:16;;;;;;;;;;;;;;;;;;5112657;28;1890;-66
2022/12/17 15:40:41;;;;;;;;;;;;;;;;;;5094310;28;1241;-66
2022/12/17 15:43:10;;;;;;;;;;;;;;;;;;5111814;28;1117;-66
2022/12/17 15:45:45;;;;;;;;;;;;;;;;;;5110719;28;1237;-66
2022/12/17 15:48:11;;;;;;;;;;;;;;;;;;5111388;28;1241;-68
2022/12/17 15:50:37;;;;;;;;;;;;;;;;;;5112044;28;970;-68
2022/12/17 15:53:02;;;;;;;;;;;;;;;;;;5112434;28;963;-68
2022/12/17 15:55:27;;;;;;;;;;;;;;;;;;5112150;28;860;-66
2022/12/17 15:57:53;;;;;;;;;;;;;;;;;;5110893;28;1218;-67
2022/12/17 16:00:19;;;;;;;;;;;;;;;;;;5110697;28;1977;-67
2022/12/17 16:02:44;;;;;;;;;;;;;;;;;;5109852;28;1181;-66
2022/12/17 16:05:09;;;;;;;;;;;;;;;;;;5111371;28;1162;-67
2022/12/17 16:07:36;;;;;;;;;;;;;;;;;;5110487;28;1380;-67
2022/12/17 16:10:02;;;;;;;;;;;;;;;;;;5111753;28;844;-66
2022/12/17 16:12:27;;;;;;;;;;;;;;;;;;5110434;28;1298;-66
2022/12/17 16:14:52;;;;;;;;;;;;;;;;;;5111037;28;1233;-66
2022/12/17 16:17:18;;;;;;;;;;;;;;;;;;5093299;28;1285;-66
2022/12/17 16:19:43;;;;;;;;;;;;;;;;;;5094051;28;1898;-66
2022/12/17 16:22:08;;;;;;;;;;;;;;;;;;5110981;28;1202;-66
2022/12/17 16:24:33;;;;;;;;;;;;;;;;;;5112283;28;891;-66
2022/12/17 16:26:59;;;;;;;;;;;;;;;;;;5111571;28;1364;-66
2022/12/17 16:29:25;;;;;;;;;;;;;;;;;;5094589;28;1238;-66
2022/12/17 16:31:50;;;;;;;;;;;;;;;;;;5112691;28;903;-67
2022/12/17 16:34:15;;;;;;;;;;;;;;;;;;5111410;28;1476;-66
2022/12/17 16:36:41;;;;;;;;;;;;;;;;;;5113099;28;1050;-66
2022/12/17 16:39:06;;;;;;;;;;;;;;;;;;5110352;28;1928;-66
2022/12/17 16:41:32;;;;;;;;;;;;;;;;;;5110202;28;1007;-66
2022/12/17 16:43:57;;;;;;;;;;;;;;;;;;5110468;28;1362;-67
2022/12/17 16:46:33;;;;;;;;;;;;;;;;;;5109700;28;1301;-66
2022/12/17 16:49:02;;;;;;;;;;;;;;;;;;5109614;28;1189;-66
2022/12/17 16:51:27;;;;;;;;;;;;;;;;;;5111011;28;845;-66
2022/12/17 16:53:53;;;;;;;;;;;;;;;;;;5109898;28;785;-67
2022/12/17 16:56:20;;;;;;;;;;;;;;;;;;5109330;28;1304;-67
2022/12/17 16:58:45;;;;;;;;;;;;;;;;;;5111291;28;1891;-67
2022/12/17 17:01:10;;;;;;;;;;;;;;;;;;5111263;28;896;-67
2022/12/17 17:03:42;;;;;;;;;;;;;;;;;;5110974;28;1066;-67
2022/12/17 17:06:08;;;;;;;;;;;;;;;;;;5110112;28;891;-67
2022/12/17 17:08:37;;;;;;;;;;;;;;;;;;5110178;28;812;-67
2022/12/17 17:11:22;;;;;;;;;;;;;;;;;;5110971;28;843;-67
2022/12/17 17:13:48;;;;;;;;;;;;;;;;;;5111499;28;855;-67
2022/12/17 17:16:14;;;;;;;;;;;;;;;;;;5110621;28;821;-67
2022/12/17 17:18:40;;;;;;;;;;;;;;;;;;5110806;28;1951;-67
2022/12/17 17:21:17;;;;;;;;;;;;;;;;;;5110227;28;892;-66
2022/12/17 17:23:43;;;;;;;;;;;;;;;;;;5111003;28;915;-66
2022/12/17 17:26:09;;;;;;;;;;;;;;;;;;5109146;28;1351;-67
2022/12/17 17:28:34;;;;;;;;;;;;;;;;;;5110961;28;911;-66
2022/12/17 17:31:00;;;;;;;;;;;;;;;;;;5092716;28;1218;-66
2022/12/17 17:33:29;;;;;;;;;;;;;;;;;;5110258;28;1003;-66
2022/12/17 17:36:01;;;;;;;;;;;;;;;;;;5109261;28;1288;-66
2022/12/17 17:38:26;;;;;;;;;;;;;;;;;;5108998;28;1897;-67
2022/12/17 17:40:55;;;;;;;;;;;;;;;;;;5109798;28;1336;-67
2022/12/17 17:43:21;;;;;;;;;;;;;;;;;;5110407;28;888;-66
2022/12/17 17:45:47;;;;;;;;;;;;;;;;;;5092477;28;1456;-66
2022/12/17 17:48:12;;;;;;;;;;;;;;;;;;5109589;28;1230;-66
2022/12/17 17:50:37;;;;;;;;;;;;;;;;;;5109533;28;825;-68
2022/12/17 17:53:03;;;;;;;;;;;;;;;;;;5110194;28;1249;-68
2022/12/17 17:55:28;;;;;;;;;;;;;;;;;;5111838;28;881;-67
2022/12/17 17:57:53;;;;;;;;;;;;;;;;;;5110927;28;1435;-67
2022/12/17 18:00:18;;;;;;;;;;;;;;;;;;5092815;28;1973;-67
2022/12/17 18:02:44;;;;;;;;;;;;;;;;;;5110786;28;1154;-67
2022/12/17 18:05:09;;;;;;;;;;;;;;;;;;5112318;28;946;-67
2022/12/17 18:07:34;;;;;;;;;;;;;;;;;;5109952;28;1170;-67
2022/12/17 18:10:00;;;;;;;;;;;;;;;;;;5110207;28;1169;-66
2022/12/17 18:15:09;;;;;;;;;;;;;;;;;;5110780;28;686;-68
2022/12/17 18:17:34;;;;;;;;;;;;;;;;;;5109994;28;863;-70
2022/12/17 18:19:59;;;;;;;;;;;;;;;;;;5110767;28;1906;-68
2022/12/17 18:22:25;;;;;;;;;;;;;;;;;;5108853;28;1205;-68
2022/12/17 18:24:50;;;;;;;;;;;;;;;;;;5111083;28;1301;-68
2022/12/17 18:27:15;;;;;;;;;;;;;;;;;;5114079;28;967;-67
2022/12/17 18:29:40;;;;;;;;;;;;;;;;;;5113931;28;899;-68
2022/12/17 18:32:06;;;;;;;;;;;;;;;;;;5113911;28;848;-68
2022/12/17 18:34:32;;;;;;;;;;;;;;;;;;5113622;28;962;-69
2022/12/17 18:36:57;;;;;;;;;;;;;;;;;;5113286;28;1241;-68
2022/12/17 18:39:23;;;;;;;;;;;;;;;;;;5112141;28;1933;-68
2022/12/17 18:44:36;;;;;;;;;;;;;;;;;;5114198;28;880;-68
2022/12/17 18:47:01;;;;;;;;;;;;;;;;;;5113670;28;1365;-66
2022/12/17 18:49:26;;;;;;;;;;;;;;;;;;5112501;28;828;-66
2022/12/17 18:51:52;;;;;;;;;;;;;;;;;;5114149;28;831;-67
2022/12/17 18:54:19;;;;;;;;;;;;;;;;;;5113260;28;820;-66
2022/12/17 18:56:44;;;;;;;;;;;;;;;;;;5112221;28;1080;-68
2022/12/17 18:59:14;;;;;;;;;;;;;;;;;;5095417;28;1914;-66
2022/12/17 19:01:39;;;;;;;;;;;;;;;;;;5113589;28;916;-66
2022/12/17 19:04:09;;;;;;;;;;;;;;;;;;5113431;28;919;-67
2022/12/17 19:06:36;;;;;;;;;;;;;;;;;;5113327;28;851;-67
2022/12/17 19:09:03;;;;;;;;;;;;;;;;;;5112046;28;1148;-66
2022/12/17 19:11:28;;;;;;;;;;;;;;;;;;5111581;28;1298;-67
2022/12/17 19:13:53;;;;;;;;;;;;;;;;;;5112362;28;1193;-67
2022/12/17 19:16:20;;;;;;;;;;;;;;;;;;5112833;28;832;-66
2022/12/17 19:18:53;;;;;;;;;;;;;;;;;;5113076;28;1901;-66
2022/12/17 19:21:19;;;;;;;;;;;;;;;;;;5112913;28;828;-67
2022/12/17 19:23:44;;;;;;;;;;;;;;;;;;5112993;28;971;-66
2022/12/17 19:26:14;;;;;;;;;;;;;;;;;;5113752;28;963;-67
2022/12/17 19:28:40;;;;;;;;;;;;;;;;;;5114020;28;872;-67
2022/12/17 19:31:05;;;;;;;;;;;;;;;;;;5112515;28;844;-67
2022/12/17 19:33:31;;;;;;;;;;;;;;;;;;5113376;28;856;-68
2022/12/17 19:36:07;;;;;;;;;;;;;;;;;;5112977;27;773;-68
2022/12/17 19:38:32;;;;;;;;;;;;;;;;;;5112849;28;1967;-68
2022/12/17 19:41:08;;;;;;;;;;;;;;;;;;5112644;28;987;-68
2022/12/17 19:43:34;;;;;;;;;;;;;;;;;;5111287;28;1174;-68
2022/12/17 19:46:07;;;;;;;;;;;;;;;;;;5111866;28;1213;-68
2022/12/17 19:48:33;;;;;;;;;;;;;;;;;;5110688;28;1314;-68
2022/12/17 19:50:58;;;;;;;;;;;;;;;;;;5111309;28;1210;-68
2022/12/17 19:53:25;;;;;;;;;;;;;;;;;;5111851;28;828;-68
2022/12/17 19:55:51;;;;;;;;;;;;;;;;;;5112742;28;825;-68
2022/12/17 19:58:17;;;;;;;;;;;;;;;;;;5093537;28;1914;-68
2022/12/17 20:00:42;;;;;;;;;;;;;;;;;;5111855;28;845;-68
2022/12/17 20:03:08;;;;;;;;;;;;;;;;;;5094556;28;1137;-68
2022/12/17 20:05:33;;;;;;;;;;;;;;;;;;5093679;28;1234;-68
2022/12/17 20:07:58;;;;;;;;;;;;;;;;;;5111055;28;884;-68
2022/12/17 20:10:24;;;;;;;;;;;;;;;;;;5110312;28;907;-69
2022/12/17 20:12:49;;;;;;;;;;;;;;;;;;5112256;28;845;-69
2022/12/17 20:15:14;;;;;;;;;;;;;;;;;;5112033;28;1033;-68
2022/12/17 20:17:40;;;;;;;;;;;;;;;;;;5092996;28;1317;-68
2022/12/17 20:20:05;;;;;;;;;;;;;;;;;;5110398;28;1945;-69
2022/12/17 20:22:30;;;;;;;;;;;;;;;;;;5110433;28;1141;-69
2022/12/17 20:24:56;;;;;;;;;;;;;;;;;;5110904;28;979;-67
2022/12/17 20:27:21;;;;;;;;;;;;;;;;;;5110584;28;1198;-67
2022/12/17 20:29:47;;;;;;;;;;;;;;;;;;5110247;28;1158;-68
2022/12/17 20:32:12;;;;;;;;;;;;;;;;;;5110499;28;1431;-68
2022/12/17 20:34:37;;;;;;;;;;;;;;;;;;5093699;28;1321;-68
2022/12/17 20:37:03;;;;;;;;;;;;;;;;;;5111728;28;883;-67
2022/12/17 20:39:28;;;;;;;;;;;;;;;;;;5110725;28;1897;-67
2022/12/17 20:41:54;;;;;;;;;;;;;;;;;;5094811;28;1287;-68
2022/12/17 20:44:19;;;;;;;;;;;;;;;;;;5110631;28;1142;-68
2022/12/17 20:46:44;;;;;;;;;;;;;;;;;;5112328;28;867;-67
2022/12/17 20:49:11;;;;;;;;;;;;;;;;;;5112836;28;895;-67
2022/12/17 20:51:36;;;;;;;;;;;;;;;;;;5111021;28;1304;-70
2022/12/17 20:54:02;;;;;;;;;;;;;;;;;;5113727;28;895;-71
2022/12/17 20:56:29;;;;;;;;;;;;;;;;;;5094571;28;1282;-70
2022/12/17 20:58:55;;;;;;;;;;;;;;;;;;5113148;28;1894;-71
2022/12/17 21:01:21;;;;;;;;;;;;;;;;;;5110746;28;1135;-71
2022/12/17 21:03:48;;;;;;;;;;;;;;;;;;5110960;28;1284;-70
2022/12/17 21:06:13;;;;;;;;;;;;;;;;;;5094441;28;1406;-70
2022/12/17 21:08:39;;;;;;;;;;;;;;;;;;5111643;28;1110;-70
2022/12/17 21:11:05;;;;;;;;;;;;;;;;;;5111693;28;1565;-69
2022/12/17 21:13:31;;;;;;;;;;;;;;;;;;5109765;28;1308;-70
2022/12/17 21:15:57;;;;;;;;;;;;;;;;;;5110537;28;1281;-70
2022/12/17 21:18:23;;;;;;;;;;;;;;;;;;5109378;28;1944;-71
2022/12/17 21:20:55;;;;;;;;;;;;;;;;;;5110653;28;833;-72
2022/12/17 21:23:20;;;;;;;;;;;;;;;;;;5109113;28;1158;-73
2022/12/17 21:25:46;;;;;;;;;;;;;;;;;;5110233;28;1056;-72
2022/12/17 21:28:11;;;;;;;;;;;;;;;;;;5112070;28;848;-72
2022/12/17 21:30:36;;;;;;;;;;;;;;;;;;5109570;28;891;-70
2022/12/17 21:33:02;;;;;;;;;;;;;;;;;;5093175;28;1330;-68
2022/12/17 21:35:27;;;;;;;;;;;;;;;;;;5109291;28;1097;-68
2022/12/17 21:37:52;;;;;;;;;;;;;;;;;;5110055;28;912;-69
2022/12/17 21:40:17;;;;;;;;;;;;;;;;;;5110388;28;1909;-67
2022/12/17 21:43:01;;;;;;;;;;;;;;;;;;5109998;28;1379;-67
2022/12/17 21:45:27;;;;;;;;;;;;;;;;;;5109587;28;888;-68
2022/12/17 21:47:52;;;;;;;;;;;;;;;;;;5110557;28;1185;-68
2022/12/17 21:50:18;;;;;;;;;;;;;;;;;;5110417;28;1213;-68
2022/12/17 21:52:43;;;;;;;;;;;;;;;;;;5109956;28;925;-67
2022/12/17 21:55:08;;;;;;;;;;;;;;;;;;5110167;28;892;-67
2022/12/17 21:57:34;;;;;;;;;;;;;;;;;;5109128;28;1121;-67
2022/12/17 21:59:59;;;;;;;;;;;;;;;;;;5111580;28;1914;-67
2022/12/17 22:02:24;;;;;;;;;;;;;;;;;;5114455;28;896;-67
2022/12/17 22:04:49;;;;;;;;;;;;;;;;;;5096926;28;1195;-67
2022/12/17 22:07:15;;;;;;;;;;;;;;;;;;5115139;28;895;-67
2022/12/17 22:09:40;;;;;;;;;;;;;;;;;;5114572;28;919;-68
2022/12/17 22:14:49;;;;;;;;;;;;;;;;;;5115663;28;690;-73
2022/12/17 22:17:15;;;;;;;;;;;;;;;;;;5115415;28;979;-73
2022/12/17 22:19:40;;;;;;;;;;;;;;;;;;5114440;28;1890;-73
2022/12/17 22:22:06;;;;;;;;;;;;;;;;;;5115229;28;867;-72
2022/12/17 22:24:31;;;;;;;;;;;;;;;;;;5113998;28;832;-72
2022/12/17 22:26:59;;;;;;;;;;;;;;;;;;5096414;28;1237;-73
2022/12/17 22:34:54;;;;;;;;;;;;;;;;;;5115038;28;654;-68
2022/12/17 22:37:19;;;;;;;;;;;;;;;;;;5112860;28;1026;-68
2022/12/17 22:39:44;;;;;;;;;;;;;;;;;;5113548;28;1905;-69
2022/12/17 22:44:53;;;;;;;;;;;;;;;;;;5114074;28;923;-68
2022/12/17 22:47:18;;;;;;;;;;;;;;;;;;5113541;28;876;-68
2022/12/17 22:49:44;;;;;;;;;;;;;;;;;;5112842;28;876;-68
2022/12/17 22:52:09;;;;;;;;;;;;;;;;;;5112273;28;1352;-68
2022/12/17 22:54:34;;;;;;;;;;;;;;;;;;5111276;28;955;-67
2022/12/17 22:56:59;;;;;;;;;;;;;;;;;;5111634;28;1317;-68
2022/12/17 22:59:25;;;;;;;;;;;;;;;;;;5111096;28;1981;-68
2022/12/17 23:01:50;;;;;;;;;;;;;;;;;;5095012;28;1192;-68
2022/12/17 23:04:15;;;;;;;;;;;;;;;;;;5113191;28;959;-68
2022/12/17 23:06:44;;;;;;;;;;;;;;;;;;5111221;28;1169;-68
2022/12/17 23:09:10;;;;;;;;;;;;;;;;;;5113267;28;877;-68
2022/12/17 23:11:35;;;;;;;;;;;;;;;;;;5111709;28;863;-68
2022/12/17 23:14:00;;;;;;;;;;;;;;;;;;5111898;28;1201;-68
2022/12/17 23:16:25;;;;;;;;;;;;;;;;;;5112576;28;887;-68
2022/12/17 23:18:51;;;;;;;;;;;;;;;;;;5112987;28;2337;-68
2022/12/17 23:21:22;;;;;;;;;;;;;;;;;;5111562;28;853;-67
2022/12/17 23:23:48;;;;;;;;;;;;;;;;;;5112014;28;809;-68
2022/12/17 23:26:20;;;;;;;;;;;;;;;;;;5112670;28;856;-68
2022/12/17 23:28:45;;;;;;;;;;;;;;;;;;5110703;28;1174;-68
2022/12/17 23:31:12;;;;;;;;;;;;;;;;;;5111672;28;939;-68
2022/12/17 23:33:38;;;;;;;;;;;;;;;;;;5110297;28;1189;-68
2022/12/17 23:36:04;;;;;;;;;;;;;;;;;;5112469;28;1057;-68
2022/12/17 23:38:32;;;;;;;;;;;;;;;;;;5093427;28;1905;-68
2022/12/17 23:41:08;;;;;;;;;;;;;;;;;;5094594;28;1226;-68
2022/12/17 23:43:34;;;;;;;;;;;;;;;;;;5110451;28;1206;-68
2022/12/17 23:45:59;;;;;;;;;;;;;;;;;;5111950;28;1050;-67
2022/12/17 23:48:32;;;;;;;;;;;;;;;;;;5110410;28;1262;-68
2022/12/17 23:50:57;;;;;;;;;;;;;;;;;;5112465;28;896;-67
2022/12/17 23:53:23;;;;;;;;;;;;;;;;;;5112057;28;891;-68
2022/12/17 23:55:48;;;;;;;;;;;;;;;;;;5111288;28;903;-68
2022/12/17 23:58:13;;;;;;;;;;;;;;;;;;5110440;28;1379;-67
